• Join FlightAware (Why Join?)
  • Login
  • US Flag 
02:19AM EDT


 

Airport Tracker/Info


-or-


 

Live Flight TrackerFlight Track Log ✈ UAL1034 ✈ 22-Jun-2013 ✈ KIAH - MPTO / PTY

Flight Track Log - Related Links

Times and Time Zones

All times are in EDT time to prevent confusion due to time zone crossing. See the UAL1034 flight status page for this flight to view local times or setup timezone preferences in your user account.

Time Position Orientation Groundspeed Altitude Reporting Facility
EDT Latitude Longitude Course Direction KTS MPH feet Rate Location/Type
04:24PM 29.9761 -95.2961 148° Southeast 175 201 900  Level Houston Center
04:25PM 29.9372 -95.2367 127° Southeast 230 265 2,600 1,860 Climbing Houston Center
04:26PM 29.6470 -95.1189 151° Southeast  Level FlightAware Approximate
04:26PM 29.8825 -95.1889 143° Southeast 248 285 4,900  Level Houston Center
04:27PM 29.5356 -95.0459 150° Southeast  Level FlightAware Approximate
04:27PM 29.8064 -95.1800 174° South 277 319 7,300  Level Houston Center
04:28PM 29.4257 -94.9701 148° Southeast  Level FlightAware Approximate
04:28PM 29.7336 -95.1442 157° South 280 322 9,700  Level Houston Center
04:29PM 29.3174 -94.8914 148° Southeast  Level FlightAware Approximate
04:29PM 29.6533 -95.0956 152° Southeast 311 358 11,200  Level Houston Center
04:30PM 29.5600 -95.0403 153° Southeast 356 410 12,800 1,800 Climbing Houston Center
04:31PM 29.4639 -94.9833 153° Southeast 378 435 14,900 1,920 Climbing Houston Center
04:32PM 29.3658 -94.9256 153° Southeast 390 449 16,800 1,680 Climbing Houston Center
04:33PM 29.2661 -94.8647 152° Southeast 401 461 18,400 1,500 Climbing Houston Center
04:34PM 29.1658 -94.7972 150° Southeast 414 476 20,000 1,440 Climbing Houston Center
04:35PM 29.0636 -94.7286 150° Southeast 425 489 21,400 1,500 Climbing Houston Center
04:36PM 28.9369 -94.6414 149° Southeast 441 507 23,100 1,440 Climbing Houston Center
04:37PM 28.8286 -94.5689 150° Southeast 449 517 24,400 1,200 Climbing Houston Center
04:38PM 28.7186 -94.4958 150° Southeast 457 526 25,600 1,140 Climbing Houston Center
04:39PM 28.6064 -94.4194 149° Southeast 465 535 26,800 1,140 Climbing Houston Center
04:40PM 28.4922 -94.3428 149° Southeast 474 545 28,000 1,020 Climbing Houston Center
04:41PM 28.3756 -94.2650 150° Southeast 484 557 29,000 1,200 Climbing Houston Center
04:42PM 28.2361 -94.1728 150° Southeast 483 556 30,500 960 Climbing Houston Center
04:43PM 28.1242 -94.0869 146° Southeast 484 557 31,000 240 Climbing Houston Center
04:44PM 28.0197 -93.9867 140° Southeast 491 565 31,000  Level Houston Center
04:45PM 27.9175 -93.8872 139° Southeast 484 557 31,000 240 Level Houston Center
04:46PM 27.8147 -93.7908 140° Southeast 481 554 31,500 720 Climbing Houston Center
04:47PM 27.7117 -93.6933 140° Southeast 484 557 32,500 960 Climbing Houston Center
04:48PM 27.6089 -93.5944 140° Southeast 486 559 33,500 1,020 Climbing Houston Center
04:49PM 27.4850 -93.4761 140° Southeast 486 559 34,700 720 Climbing Houston Center
04:50PM 27.3806 -93.3808 141° Southeast 485 558 35,000 120 Climbing Houston Center
04:51PM 27.2761 -93.2828 140° Southeast 487 560 35,000  Level Houston Center
04:52PM 27.1711 -93.1856 141° Southeast 489 563 35,000  Level Houston Center
04:54PM 27.0686 -93.0886 140° Southeast 485 558 35,000  Level Houston Center
04:55PM 26.9436 -92.9722 140° Southeast 482 555 35,000  Level Houston Center
04:56PM 26.8506 -92.8819 139° Southeast 483 556 35,000  Level Houston Center
04:57PM 26.7442 -92.7908 143° Southeast 484 557 35,000  Level Houston Center
04:58PM 26.6281 -92.7175 151° Southeast 485 558 35,000  Level Houston Center
05:00PM 26.4286 -92.5869 150° Southeast  Level FlightAware Approximate
05:07PM 25.6804 -92.0994 149° Southeast  Level FlightAware Approximate
05:08PM 25.5738 -92.0295 149° Southeast  Level FlightAware Approximate
05:09PM 25.4671 -91.9597 149° Southeast  Level FlightAware Approximate
05:10PM 25.3605 -91.8901 149° Southeast  Level FlightAware Approximate
05:11PM 25.2538 -91.8205 149° Southeast  Level FlightAware Approximate
05:12PM 25.1470 -91.7511 150° Southeast  Level FlightAware Approximate
05:13PM 25.0403 -91.6818 150° Southeast  Level FlightAware Approximate
05:14PM 24.9335 -91.6127 150° Southeast  Level FlightAware Approximate
05:15PM 24.8266 -91.5436 150° Southeast  Level FlightAware Approximate
05:16PM 24.7198 -91.4747 150° Southeast  Level FlightAware Approximate
05:17PM 24.6129 -91.4059 150° Southeast  Level FlightAware Approximate
05:18PM 24.5060 -91.3372 150° Southeast  Level FlightAware Approximate
05:19PM 24.4164 -91.2435 136° Southeast  Level FlightAware Approximate
05:20PM 24.3279 -91.1485 136° Southeast  Level FlightAware Approximate
05:21PM 24.2392 -91.0536 136° Southeast  Level FlightAware Approximate
05:22PM 24.1505 -90.9588 136° Southeast  Level FlightAware Approximate
05:23PM 24.0618 -90.8642 136° Southeast  Level FlightAware Approximate
05:24PM 23.9730 -90.7697 136° Southeast  Level FlightAware Approximate
05:25PM 23.8841 -90.6753 136° Southeast  Level FlightAware Approximate
05:26PM 23.7952 -90.5810 136° Southeast  Level FlightAware Approximate
05:27PM 23.7062 -90.4869 136° Southeast  Level FlightAware Approximate
05:28PM 23.6172 -90.3930 136° Southeast  Level FlightAware Approximate
05:29PM 23.5281 -90.2991 136° Southeast  Level FlightAware Approximate
05:30PM 23.4389 -90.2054 136° Southeast  Level FlightAware Approximate
05:31PM 23.3497 -90.1118 136° Southeast  Level FlightAware Approximate
05:32PM 23.2605 -90.0183 136° Southeast  Level FlightAware Approximate
05:33PM 23.1712 -89.9249 136° Southeast  Level FlightAware Approximate
05:34PM 23.0817 -89.8317 137° Southeast  Level FlightAware Approximate
05:35PM 22.9907 -89.7405 137° Southeast  Level FlightAware Approximate
05:36PM 22.8996 -89.6494 137° Southeast  Level FlightAware Approximate
05:37PM 22.8085 -89.5584 137° Southeast  Level FlightAware Approximate
05:38PM 22.7180 -89.4667 137° Southeast  Level FlightAware Approximate
05:39PM 22.6280 -89.3745 137° Southeast  Level FlightAware Approximate
05:40PM 22.5380 -89.2824 137° Southeast  Level FlightAware Approximate
05:41PM 22.4479 -89.1904 137° Southeast  Level FlightAware Approximate
05:42PM 22.3577 -89.0986 137° Southeast  Level FlightAware Approximate
05:43PM 22.2675 -89.0068 137° Southeast  Level FlightAware Approximate
05:44PM 22.1773 -88.9152 137° Southeast  Level FlightAware Approximate
05:45PM 22.0870 -88.8237 137° Southeast  Level FlightAware Approximate
05:46PM 21.9966 -88.7323 137° Southeast  Level FlightAware Approximate
05:47PM 21.9062 -88.6411 137° Southeast  Level FlightAware Approximate
05:48PM 21.8158 -88.5499 137° Southeast  Level FlightAware Approximate
05:49PM 21.7253 -88.4589 137° Southeast  Level FlightAware Approximate
05:50PM 21.6347 -88.3680 137° Southeast  Level FlightAware Approximate
05:51PM 21.5441 -88.2772 137° Southeast  Level FlightAware Approximate
05:52PM 21.4534 -88.1865 137° Southeast  Level FlightAware Approximate
05:53PM 21.3594 -88.0928 137° Southeast  Level FlightAware Approximate
05:54PM 21.2656 -87.9988 137° Southeast  Level FlightAware Approximate
05:55PM 21.1717 -87.9051 137° Southeast  Level FlightAware Approximate
05:56PM 21.0776 -87.8116 137° Southeast  Level FlightAware Approximate
05:57PM 20.9834 -87.7183 137° Southeast  Level FlightAware Approximate
05:58PM 20.8892 -87.6251 137° Southeast  Level FlightAware Approximate
05:59PM 20.7949 -87.5321 137° Southeast  Level FlightAware Approximate
06:00PM 20.7005 -87.4391 137° Southeast  Level FlightAware Approximate
06:01PM 20.6061 -87.3463 137° Southeast  Level FlightAware Approximate
06:02PM 20.5117 -87.2535 137° Southeast  Level FlightAware Approximate
06:03PM 20.4172 -87.1609 137° Southeast  Level FlightAware Approximate
06:04PM 20.3227 -87.0685 137° Southeast  Level FlightAware Approximate
06:05PM 20.2281 -86.9761 137° Southeast  Level FlightAware Approximate
06:06PM 20.1334 -86.8838 138° Southeast  Level FlightAware Approximate
06:07PM 20.0387 -86.7916 138° Southeast  Level FlightAware Approximate
06:08PM 19.9440 -86.6996 138° Southeast  Level FlightAware Approximate
06:09PM 19.8492 -86.6077 138° Southeast  Level FlightAware Approximate
06:10PM 19.7544 -86.5158 138° Southeast  Level FlightAware Approximate
06:11PM 19.6595 -86.4241 138° Southeast  Level FlightAware Approximate
06:12PM 19.5601 -86.3386 146° Southeast  Level FlightAware Approximate
06:13PM 19.4531 -86.2635 147° Southeast  Level FlightAware Approximate
06:14PM 19.3461 -86.1886 147° Southeast  Level FlightAware Approximate
06:15PM 19.2390 -86.1137 147° Southeast  Level FlightAware Approximate
06:16PM 19.1319 -86.0389 147° Southeast  Level FlightAware Approximate
06:17PM 19.0248 -85.9642 147° Southeast  Level FlightAware Approximate
06:18PM 18.9176 -85.8896 147° Southeast  Level FlightAware Approximate
06:19PM 18.8104 -85.8151 147° Southeast  Level FlightAware Approximate
06:20PM 18.7032 -85.7408 147° Southeast  Level FlightAware Approximate
06:21PM 18.5960 -85.6665 147° Southeast  Level FlightAware Approximate
06:22PM 18.4887 -85.5922 147° Southeast  Level FlightAware Approximate
06:23PM 18.3814 -85.5181 147° Southeast  Level FlightAware Approximate
06:24PM 18.2741 -85.4441 147° Southeast  Level FlightAware Approximate
06:25PM 18.1667 -85.3702 147° Southeast  Level FlightAware Approximate
06:26PM 18.0594 -85.2963 147° Southeast  Level FlightAware Approximate
06:27PM 17.9520 -85.2226 147° Southeast  Level FlightAware Approximate
06:28PM 17.8445 -85.1489 147° Southeast  Level FlightAware Approximate
06:29PM 17.7370 -85.0753 147° Southeast  Level FlightAware Approximate
06:30PM 17.6294 -85.0021 147° Southeast  Level FlightAware Approximate
06:31PM 17.5216 -84.9292 147° Southeast  Level FlightAware Approximate
06:32PM 17.4137 -84.8563 147° Southeast  Level FlightAware Approximate
06:33PM 17.3059 -84.7835 147° Southeast  Level FlightAware Approximate
06:34PM 17.1980 -84.7108 147° Southeast  Level FlightAware Approximate
06:35PM 17.0901 -84.6382 147° Southeast  Level FlightAware Approximate
06:36PM 16.9822 -84.5656 147° Southeast  Level FlightAware Approximate
06:37PM 16.8743 -84.4932 147° Southeast  Level FlightAware Approximate
06:38PM 16.7663 -84.4208 147° Southeast  Level FlightAware Approximate
06:39PM 16.6583 -84.3485 147° Southeast  Level FlightAware Approximate
06:40PM 16.5503 -84.2763 147° Southeast  Level FlightAware Approximate
06:41PM 16.4422 -84.2042 147° Southeast  Level FlightAware Approximate
06:42PM 16.3342 -84.1321 147° Southeast  Level FlightAware Approximate
06:43PM 16.2260 -84.0602 147° Southeast  Level FlightAware Approximate
06:44PM 16.1179 -83.9883 147° Southeast  Level FlightAware Approximate
06:45PM 16.0098 -83.9165 147° Southeast  Level FlightAware Approximate
06:46PM 15.9016 -83.8447 147° Southeast  Level FlightAware Approximate
06:47PM 15.7934 -83.7731 147° Southeast  Level FlightAware Approximate
06:48PM 15.6852 -83.7015 148° Southeast  Level FlightAware Approximate
06:49PM 15.5770 -83.6300 148° Southeast  Level FlightAware Approximate
06:50PM 15.4687 -83.5586 148° Southeast  Level FlightAware Approximate
06:51PM 15.3604 -83.4872 148° Southeast  Level FlightAware Approximate
06:52PM 15.2521 -83.4159 148° Southeast  Level FlightAware Approximate
06:53PM 15.1438 -83.3447 148° Southeast  Level FlightAware Approximate
06:54PM 15.0354 -83.2736 148° Southeast  Level FlightAware Approximate
06:55PM 14.9270 -83.2026 148° Southeast  Level FlightAware Approximate
06:56PM 14.8186 -83.1316 148° Southeast  Level FlightAware Approximate
06:57PM 14.7102 -83.0607 148° Southeast  Level FlightAware Approximate
06:58PM 14.6018 -82.9898 148° Southeast  Level FlightAware Approximate
06:59PM 14.4933 -82.9190 148° Southeast  Level FlightAware Approximate
07:00PM 14.3848 -82.8483 148° Southeast  Level FlightAware Approximate
07:01PM 14.2763 -82.7777 148° Southeast  Level FlightAware Approximate
07:02PM 14.1678 -82.7071 148° Southeast  Level FlightAware Approximate
07:03PM 14.0592 -82.6366 148° Southeast  Level FlightAware Approximate
07:04PM 13.9507 -82.5662 148° Southeast  Level FlightAware Approximate
07:05PM 13.8418 -82.4963 148° Southeast  Level FlightAware Approximate
07:06PM 13.7327 -82.4268 148° Southeast  Level FlightAware Approximate
07:07PM 13.6236 -82.3575 148° Southeast  Level FlightAware Approximate
07:08PM 13.5144 -82.2882 148° Southeast  Level FlightAware Approximate
07:09PM 13.4052 -82.2189 148° Southeast  Level FlightAware Approximate
07:10PM 13.2960 -82.1497 148° Southeast  Level FlightAware Approximate
07:11PM 13.1868 -82.0806 148° Southeast  Level FlightAware Approximate
07:12PM 13.0775 -82.0115 148° Southeast  Level FlightAware Approximate
07:13PM 12.9683 -81.9425 148° Southeast  Level FlightAware Approximate
07:14PM 12.8590 -81.8736 148° Southeast  Level FlightAware Approximate
07:15PM 12.7497 -81.8047 148° Southeast  Level FlightAware Approximate
07:16PM 12.6404 -81.7359 148° Southeast  Level FlightAware Approximate
07:17PM 12.5299 -81.6691 151° Southeast  Level FlightAware Approximate
07:18PM 12.4182 -81.6045 151° Southeast  Level FlightAware Approximate
07:19PM 12.3065 -81.5400 151° Southeast  Level FlightAware Approximate
07:20PM 12.1947 -81.4755 151° Southeast  Level FlightAware Approximate
07:21PM 12.0830 -81.4111 151° Southeast  Level FlightAware Approximate
07:22PM 11.9712 -81.3467 151° Southeast  Level FlightAware Approximate
07:23PM 11.8594 -81.2824 151° Southeast  Level FlightAware Approximate
07:24PM 11.7476 -81.2182 151° Southeast  Level FlightAware Approximate
07:25PM 11.6358 -81.1540 151° Southeast  Level FlightAware Approximate
07:26PM 11.5239 -81.0898 151° Southeast  Level FlightAware Approximate
07:27PM 11.4121 -81.0257 151° Southeast  Level FlightAware Approximate
07:28PM 11.3002 -80.9617 151° Southeast  Level FlightAware Approximate
07:29PM 11.1883 -80.8977 151° Southeast  Level FlightAware Approximate
07:30PM 11.0764 -80.8337 151° Southeast  Level FlightAware Approximate
07:31PM 10.9645 -80.7698 151° Southeast  Level FlightAware Approximate
07:32PM 10.8526 -80.7060 151° Southeast  Level FlightAware Approximate
07:33PM 10.7407 -80.6422 151° Southeast  Level FlightAware Approximate
07:34PM 10.6282 -80.5795 152° Southeast  Level FlightAware Approximate
07:35PM 10.5146 -80.5188 152° Southeast  Level FlightAware Approximate
07:36PM 10.4018 -80.4568 147° Southeast  Level FlightAware Approximate
07:37PM 10.2894 -80.3943 152° Southeast  Level FlightAware Approximate
07:38PM 10.1761 -80.3333 152° Southeast  Level FlightAware Approximate
07:39PM 10.0629 -80.2720 151° Southeast  Level FlightAware Approximate
07:40PM 9.9503 -80.2094 151° Southeast  Level FlightAware Approximate
07:41PM 9.8378 -80.1469 151° Southeast  Level FlightAware Approximate
07:42PM 9.7261 -80.0830 150° Southeast  Level FlightAware Approximate
07:43PM 9.6151 -80.0177 150° Southeast  Level FlightAware Approximate
07:44PM 9.5041 -79.9524 150° Southeast  Level FlightAware Approximate
07:45PM 9.3904 -79.8923 153° Southeast  Level FlightAware Approximate
07:46PM 9.2765 -79.8324 153° Southeast  Level FlightAware Approximate
07:47PM 9.1635 -79.7710 148° Southeast  Level FlightAware Approximate
07:48PM 9.0544 -79.7027 148° Southeast  Level FlightAware Approximate
07:49PM 8.9396 -79.6448 154° Southeast  Level FlightAware Approximate
07:50PM 8.8272 -79.5829 143° Southeast  Level FlightAware Approximate
07:51PM 8.8494 -79.5170 26° Northeast  Level FlightAware Approximate
07:52PM 8.9517 -79.4404 37° Northeast  Level FlightAware Approximate
07:53PM 9.0598 -79.3708 31° Northeast  Level FlightAware Approximate
07:54PM 9.0667 -79.3667 31° Northeast  Level FlightAware Approximate
07:55PM 9.0714 -79.3835 31° Northeast  Level Estimated
07:56PM 9.0714 -79.3835 31° Northeast  Level Estimated